This is the latest recevied weather packets stored in our database for station/object K6CED. If no packets are shown the sender has not sent any weather packets the latest 10 day(s).
| Time | Temp. | Humidity | Pressure | Rain* | Wind** | Luminosity | Snow |
|---|---|---|---|---|---|---|---|
| 1777404289 | 21.67° C | 37% | 1018.7 hPa | 0 mm | - | 902 W/m² | - |
| 1777403985 | 21.67° C | 36% | 1018.5 hPa | 0 mm | - | 906 W/m² | - |
| 1777403680 | 21.11° C | 37% | 1018.8 hPa | 0 mm | - | 904 W/m² | - |
| 1777403379 | 21.67° C | 36% | 1018.8 hPa | 0 mm | - | 902 W/m² | - |
| 1777403073 | 21.67° C | 37% | 1018.8 hPa | 0 mm | - | 901 W/m² | - |
| 1777402769 | 21.11° C | 39% | 1018.9 hPa | 0 mm | - | 894 W/m² | - |
| 1777402465 | 20.56° C | 41% | 1019.1 hPa | 0 mm | - | 897 W/m² | - |
| 1777402164 | 20.56° C | 40% | 1019 hPa | 0 mm | - | 891 W/m² | - |
| 1777401859 | 20° C | 42% | 1018.9 hPa | 0 mm | - | 888 W/m² | - |
| 1777401558 | 20° C | 42% | 1019.2 hPa | 0 mm | - | 882 W/m² | - |
| 1777401254 | 21.11° C | 39% | 1019 hPa | 0 mm | - | 877 W/m² | - |
| 1777400950 | 20.56° C | 41% | 1019 hPa | 0 mm | - | 873 W/m² | - |
| 1777400645 | 20.56° C | 42% | 1019.1 hPa | 0 mm | - | 870 W/m² | - |
| 1777400344 | 19.44° C | 44% | 1019.3 hPa | 0 mm | - | 863 W/m² | - |
| 1777400039 | 18.89° C | 45% | 1019.3 hPa | 0 mm | - | 851 W/m² | - |
| 1777399736 | 18.89° C | 46% | 1019.5 hPa | 0 mm | - | 844 W/m² | - |
| 1777399433 | 18.33° C | 47% | 1019.3 hPa | 0 mm | - | 836 W/m² | - |
| 1777399130 | 19.44° C | 45% | 1019.5 hPa | 0 mm | - | 826 W/m² | - |
| 1777398828 | 18.33° C | 47% | 1019.5 hPa | 0 mm | - | 822 W/m² | - |
| 1777398525 | 18.33° C | 47% | 1020 hPa | 0 mm | - | 816 W/m² | - |
| 1777398221 | 18.33° C | 48% | 1019.8 hPa | 0 mm | - | 773 W/m² | - |
| 1777397918 | 18.33° C | 50% | 1019.7 hPa | 0 mm | - | 787 W/m² | - |
| 1777397613 | 18.33° C | 49% | 1019.9 hPa | 0 mm | - | 779 W/m² | - |
| 1777397310 | 17.78° C | 51% | 1019.9 hPa | 0 mm | - | 768 W/m² | - |
| 1777397007 | 17.22° C | 52% | 1020 hPa | 0 mm | - | 736 W/m² | - |
* Rain latest hour (hover to see other rain measurements)
** Current wind speed in m/s (hover to see current wind gust speed)